| Date | Temp | Humidity | Rainfall | Dew Point | Wind Direction | Wind Speed | Wind Pressure | Condition | Visibility |
|---|---|---|---|---|---|---|---|---|---|
| 2025-03-07 02:01:05 | 26 | 95 | 25 | 190 | 7.6 | 1009 | Rain | 10 km | |
| 2025-03-07 00:58:57 | 26 | 96 | 25 | 160 | 5.7 | 1009 | Cloudy | 10 km | |
| 2025-03-07 00:02:16 | 26 | 97 | 26 | 140 | 3.8 | 1009 | Rain | 10 km | |
| 2025-03-06 22:58:40 | 26 | 95 | 26 | 150 | 3.8 | 1010 | Rain | 09 km | |
| 2025-03-06 22:00:54 | 27 | 95 | 26 | 180 | 3.8 | 1010 | Rain | 09 km | |
| 2025-03-06 21:03:00 | 27 | 94 | 26 | 150 | 3.8 | 1009 | Rain | 10KM | |
| 2025-03-06 20:05:17 | 27 | 95 | 26 | 130 | 1.9 | 1009 | Rain | 10KM | |
| 2025-03-06 19:02:57 | 27 | 90 | 26 | 050 | 5.7 | 1009 | Showers | 10KM | |
| 2025-03-06 18:01:18 | 28 | 85 | 25 | 350 | 9.5 | 1009 | Showers | 10KM | |
| 2025-03-06 17:03:04 | 28 | 84 | 0.00 | 25 | 320 | 11.4 | 1008 | Distant showers | 10 KM |
| 2025-03-06 16:01:08 | 29 | 78 | 0.00 | 25 | 330 | 19.0 | 1007 | Distant showers | 10 KM |
| 2025-03-06 15:08:50 | 30 | 69 | 0.00 | 24 | 320 | 19.0 | 1007 | Distant showers | 10 KM |
| 2025-03-06 14:01:37 | 31 | 70 | 0.00 | 24 | 310 | 17.1 | 1008 | Cloudy | 20 KM |
| 2025-03-06 11:01:25 | 31 | 66 | 0.00 | 24 | 210 | 9.5 | 1010 | Partly Cloudy (Day) | 10 km |
| 2025-03-06 10:02:01 | 30 | 72 | 24 | 120 | 3.8 | 1011 | Partly Cloudy (Day) | 20 KM | |
| 2025-03-06 09:00:15 | 27 | 87 | 24 | 190 | 7.6 | 1011 | Partly Cloudy (Day) | 15 KM | |
| 2025-03-06 08:00:23 | 26 | 94 | 0.00 | 25 | 110 | 1.9 | 1011 | Distant showers | 10KM |
| 2025-03-06 07:25:02 | 25 | 94 | 0.00 | 24 | 160 | 3.8 | 1011 | Partly Cloudy (Day) | 10KM |
| 2025-03-06 06:00:21 | 25 | 96 | 0.00 | 24 | 190 | 5.7 | 1010 | Rain | 10KM |
| 2025-03-06 04:59:57 | 25 | 97 | 0.00 | 24 | 150 | 3.8 | 1009 | Rain | 10KM |
| 2025-03-06 04:00:38 | 25 | 25 | 0.00 | 25 | 150 | 5.7 | 1009 | Rain | 10KM |
| 2025-03-06 03:01:02 | 25 | 98 | 0.00 | 24 | 170 | 7.6 | 1009 | Thundershowers | 6KM |
| 2025-03-06 02:02:03 | 26 | 96 | 0.0 | 25 | 150 | 7.6 | 1010 | Thundershowers | 06 KM |
| 2025-03-06 01:00:06 | 26 | 94 | 0.0 | 25 | 180 | 4.0 | 1010 | Thundershowers | 08 KM |
| 2025-03-05 23:58:57 | 27 | 94 | 0.0 | 26 | 140 | 3.8 | 1010 | Thundershowers | 08 KM |